sensor_id;sensor_type;location;lat;lon;timestamp;P1;durP1;ratioP1;P2;durP2;ratioP2
54241;SDS011;40156;51.080;17.082;2022-07-29T00:01:47;4.80;;;2.10;;
54241;SDS011;40156;51.080;17.082;2022-07-29T00:04:15;3.75;;;2.00;;
54241;SDS011;40156;51.080;17.082;2022-07-29T00:06:43;5.53;;;2.03;;
54241;SDS011;40156;51.080;17.082;2022-07-29T00:09:11;4.07;;;2.15;;
54241;SDS011;40156;51.080;17.082;2022-07-29T00:11:38;6.40;;;1.88;;
54241;SDS011;40156;51.080;17.082;2022-07-29T00:14:06;4.38;;;2.10;;
54241;SDS011;40156;51.080;17.082;2022-07-29T00:16:33;3.20;;;1.77;;
54241;SDS011;40156;51.080;17.082;2022-07-29T00:19:01;3.97;;;1.80;;
54241;SDS011;40156;51.080;17.082;2022-07-29T00:21:28;5.25;;;2.28;;
54241;SDS011;40156;51.080;17.082;2022-07-29T00:23:56;7.85;;;1.88;;
54241;SDS011;40156;51.080;17.082;2022-07-29T00:26:23;4.60;;;2.42;;
54241;SDS011;40156;51.080;17.082;2022-07-29T00:28:51;2.05;;;1.73;;
54241;SDS011;40156;51.080;17.082;2022-07-29T00:34:31;4.47;;;1.98;;
54241;SDS011;40156;51.080;17.082;2022-07-29T00:36:58;4.57;;;2.40;;
54241;SDS011;40156;51.080;17.082;2022-07-29T00:39:26;5.25;;;2.60;;
54241;SDS011;40156;51.080;17.082;2022-07-29T00:41:53;5.22;;;1.83;;
54241;SDS011;40156;51.080;17.082;2022-07-29T00:44:21;5.00;;;1.70;;
54241;SDS011;40156;51.080;17.082;2022-07-29T00:46:48;4.63;;;1.80;;
54241;SDS011;40156;51.080;17.082;2022-07-29T00:49:16;4.90;;;2.00;;
54241;SDS011;40156;51.080;17.082;2022-07-29T00:51:51;3.95;;;2.00;;
54241;SDS011;40156;51.080;17.082;2022-07-29T00:54:18;4.03;;;2.00;;
54241;SDS011;40156;51.080;17.082;2022-07-29T00:56:46;2.45;;;1.90;;
54241;SDS011;40156;51.080;17.082;2022-07-29T00:59:13;3.97;;;2.35;;
54241;SDS011;40156;51.080;17.082;2022-07-29T01:01:41;5.03;;;1.90;;
54241;SDS011;40156;51.080;17.082;2022-07-29T01:04:08;3.05;;;1.67;;
54241;SDS011;40156;51.080;17.082;2022-07-29T01:06:36;4.82;;;2.35;;
54241;SDS011;40156;51.080;17.082;2022-07-29T01:09:03;3.35;;;1.67;;
54241;SDS011;40156;51.080;17.082;2022-07-29T01:11:31;3.70;;;2.30;;
54241;SDS011;40156;51.080;17.082;2022-07-29T01:13:59;7.53;;;2.55;;
54241;SDS011;40156;51.080;17.082;2022-07-29T01:16:35;4.80;;;1.98;;
54241;SDS011;40156;51.080;17.082;2022-07-29T01:19:13;4.90;;;1.98;;
54241;SDS011;40156;51.080;17.082;2022-07-29T01:21:57;4.75;;;1.77;;
54241;SDS011;40156;51.080;17.082;2022-07-29T01:26:57;3.30;;;2.25;;
54241;SDS011;40156;51.080;17.082;2022-07-29T01:29:29;5.82;;;2.00;;
54241;SDS011;40156;51.080;17.082;2022-07-29T01:32:19;6.07;;;2.10;;
54241;SDS011;40156;51.080;17.082;2022-07-29T01:35:10;3.28;;;2.05;;
54241;SDS011;40156;51.080;17.082;2022-07-29T01:45:34;3.55;;;2.10;;
54241;SDS011;40156;51.080;17.082;2022-07-29T01:51:04;3.35;;;1.73;;
54241;SDS011;40156;51.080;17.082;2022-07-29T01:53:37;3.35;;;1.85;;
54241;SDS011;40156;51.080;17.082;2022-07-29T01:56:06;4.28;;;2.10;;
54241;SDS011;40156;51.080;17.082;2022-07-29T01:58:33;2.47;;;2.05;;
54241;SDS011;40156;51.080;17.082;2022-07-29T02:01:02;4.80;;;2.20;;
54241;SDS011;40156;51.080;17.082;2022-07-29T02:03:31;2.72;;;1.95;;
54241;SDS011;40156;51.080;17.082;2022-07-29T02:05:59;3.50;;;2.08;;
54241;SDS011;40156;51.080;17.082;2022-07-29T02:08:27;5.88;;;2.30;;
54241;SDS011;40156;51.080;17.082;2022-07-29T02:13:32;6.63;;;2.30;;
54241;SDS011;40156;51.080;17.082;2022-07-29T02:16:01;5.82;;;2.22;;
54241;SDS011;40156;51.080;17.082;2022-07-29T02:21:52;5.35;;;2.13;;
54241;SDS011;40156;51.080;17.082;2022-07-29T02:24:20;4.97;;;2.10;;
54241;SDS011;40156;51.080;17.082;2022-07-29T02:26:48;5.38;;;2.55;;
54241;SDS011;40156;51.080;17.082;2022-07-29T02:29:16;3.40;;;2.25;;
54241;SDS011;40156;51.080;17.082;2022-07-29T02:34:49;3.25;;;2.05;;
54241;SDS011;40156;51.080;17.082;2022-07-29T02:37:24;3.60;;;2.10;;
54241;SDS011;40156;51.080;17.082;2022-07-29T02:39:53;5.15;;;2.78;;
54241;SDS011;40156;51.080;17.082;2022-07-29T02:42:22;3.85;;;2.38;;
54241;SDS011;40156;51.080;17.082;2022-07-29T02:44:50;4.57;;;2.10;;
54241;SDS011;40156;51.080;17.082;2022-07-29T02:49:52;3.70;;;2.20;;
54241;SDS011;40156;51.080;17.082;2022-07-29T02:55:25;4.93;;;1.98;;
54241;SDS011;40156;51.080;17.082;2022-07-29T02:58:02;7.15;;;2.70;;
54241;SDS011;40156;51.080;17.082;2022-07-29T03:00:31;3.65;;;2.03;;
54241;SDS011;40156;51.080;17.082;2022-07-29T03:06:16;4.05;;;3.10;;
54241;SDS011;40156;51.080;17.082;2022-07-29T03:09:04;6.65;;;2.38;;
54241;SDS011;40156;51.080;17.082;2022-07-29T03:11:40;4.05;;;2.15;;
54241;SDS011;40156;51.080;17.082;2022-07-29T03:14:16;6.00;;;2.38;;
54241;SDS011;40156;51.080;17.082;2022-07-29T03:16:44;4.93;;;2.47;;
54241;SDS011;40156;51.080;17.082;2022-07-29T03:19:12;4.63;;;2.70;;
54241;SDS011;40156;51.080;17.082;2022-07-29T03:21:42;4.35;;;2.45;;
54241;SDS011;40156;51.080;17.082;2022-07-29T03:24:09;6.22;;;2.33;;
54241;SDS011;40156;51.080;17.082;2022-07-29T03:26:43;5.80;;;2.60;;
54241;SDS011;40156;51.080;17.082;2022-07-29T03:29:10;6.53;;;2.53;;
54241;SDS011;40156;51.080;17.082;2022-07-29T03:31:40;3.85;;;2.40;;
54241;SDS011;40156;51.080;17.082;2022-07-29T03:37:03;5.05;;;2.70;;
54241;SDS011;40156;51.080;17.082;2022-07-29T03:39:31;8.00;;;3.42;;
54241;SDS011;40156;51.080;17.082;2022-07-29T03:42:00;4.38;;;2.63;;
54241;SDS011;40156;51.080;17.082;2022-07-29T03:44:28;7.50;;;3.00;;
54241;SDS011;40156;51.080;17.082;2022-07-29T03:49:40;6.85;;;2.80;;
54241;SDS011;40156;51.080;17.082;2022-07-29T03:52:17;6.07;;;2.88;;
54241;SDS011;40156;51.080;17.082;2022-07-29T03:54:46;6.80;;;2.65;;
54241;SDS011;40156;51.080;17.082;2022-07-29T03:57:13;7.53;;;3.65;;
54241;SDS011;40156;51.080;17.082;2022-07-29T03:59:41;4.80;;;2.67;;
54241;SDS011;40156;51.080;17.082;2022-07-29T04:02:10;4.10;;;2.83;;
54241;SDS011;40156;51.080;17.082;2022-07-29T04:04:56;6.07;;;2.83;;
54241;SDS011;40156;51.080;17.082;2022-07-29T04:07:24;4.32;;;1.95;;
54241;SDS011;40156;51.080;17.082;2022-07-29T04:09:51;6.70;;;2.30;;
54241;SDS011;40156;51.080;17.082;2022-07-29T04:12:18;3.92;;;2.25;;
54241;SDS011;40156;51.080;17.082;2022-07-29T04:14:46;4.53;;;2.25;;
54241;SDS011;40156;51.080;17.082;2022-07-29T04:17:14;4.88;;;3.13;;
54241;SDS011;40156;51.080;17.082;2022-07-29T04:19:41;5.93;;;2.53;;
54241;SDS011;40156;51.080;17.082;2022-07-29T04:22:08;3.55;;;2.35;;
54241;SDS011;40156;51.080;17.082;2022-07-29T04:24:36;4.60;;;2.17;;
54241;SDS011;40156;51.080;17.082;2022-07-29T04:27:03;3.45;;;2.25;;
54241;SDS011;40156;51.080;17.082;2022-07-29T04:29:31;4.05;;;1.88;;
54241;SDS011;40156;51.080;17.082;2022-07-29T04:31:58;4.80;;;2.10;;
54241;SDS011;40156;51.080;17.082;2022-07-29T04:34:25;5.88;;;2.55;;
54241;SDS011;40156;51.080;17.082;2022-07-29T04:36:55;4.35;;;2.40;;
54241;SDS011;40156;51.080;17.082;2022-07-29T04:39:23;8.15;;;2.13;;
54241;SDS011;40156;51.080;17.082;2022-07-29T04:44:22;7.47;;;2.50;;
54241;SDS011;40156;51.080;17.082;2022-07-29T04:46:55;5.10;;;2.42;;
54241;SDS011;40156;51.080;17.082;2022-07-29T04:49:23;5.28;;;2.00;;
54241;SDS011;40156;51.080;17.082;2022-07-29T04:51:50;4.20;;;2.13;;
54241;SDS011;40156;51.080;17.082;2022-07-29T04:54:17;4.57;;;2.20;;
54241;SDS011;40156;51.080;17.082;2022-07-29T04:56:45;2.28;;;1.90;;
54241;SDS011;40156;51.080;17.082;2022-07-29T04:59:14;3.53;;;2.03;;
54241;SDS011;40156;51.080;17.082;2022-07-29T05:01:47;5.18;;;1.80;;
54241;SDS011;40156;51.080;17.082;2022-07-29T05:04:14;5.13;;;2.00;;
54241;SDS011;40156;51.080;17.082;2022-07-29T05:06:50;3.13;;;2.05;;
54241;SDS011;40156;51.080;17.082;2022-07-29T05:09:18;5.03;;;2.10;;
54241;SDS011;40156;51.080;17.082;2022-07-29T05:11:45;4.57;;;1.90;;
54241;SDS011;40156;51.080;17.082;2022-07-29T05:14:13;4.78;;;2.13;;
54241;SDS011;40156;51.080;17.082;2022-07-29T05:16:41;6.70;;;2.05;;
54241;SDS011;40156;51.080;17.082;2022-07-29T05:19:08;3.60;;;1.90;;
54241;SDS011;40156;51.080;17.082;2022-07-29T05:21:40;3.97;;;2.15;;
54241;SDS011;40156;51.080;17.082;2022-07-29T05:24:08;3.53;;;1.88;;
54241;SDS011;40156;51.080;17.082;2022-07-29T05:26:51;3.63;;;2.00;;
54241;SDS011;40156;51.080;17.082;2022-07-29T05:29:19;3.45;;;1.63;;
54241;SDS011;40156;51.080;17.082;2022-07-29T05:32:06;3.05;;;1.70;;
54241;SDS011;40156;51.080;17.082;2022-07-29T05:34:34;5.10;;;1.95;;
54241;SDS011;40156;51.080;17.082;2022-07-29T05:37:01;5.15;;;2.05;;
54241;SDS011;40156;51.080;17.082;2022-07-29T05:39:29;3.42;;;1.90;;
54241;SDS011;40156;51.080;17.082;2022-07-29T05:42:16;4.65;;;2.10;;
54241;SDS011;40156;51.080;17.082;2022-07-29T05:44:43;3.50;;;2.08;;
54241;SDS011;40156;51.080;17.082;2022-07-29T05:47:11;5.93;;;2.08;;
54241;SDS011;40156;51.080;17.082;2022-07-29T05:49:38;4.20;;;2.10;;
54241;SDS011;40156;51.080;17.082;2022-07-29T05:52:06;2.58;;;1.73;;
54241;SDS011;40156;51.080;17.082;2022-07-29T05:54:33;5.53;;;1.75;;
54241;SDS011;40156;51.080;17.082;2022-07-29T05:57:01;4.43;;;2.00;;
54241;SDS011;40156;51.080;17.082;2022-07-29T05:59:28;3.58;;;1.92;;
54241;SDS011;40156;51.080;17.082;2022-07-29T06:01:57;5.90;;;2.10;;
54241;SDS011;40156;51.080;17.082;2022-07-29T06:04:24;2.45;;;1.83;;
54241;SDS011;40156;51.080;17.082;2022-07-29T06:06:52;4.47;;;2.05;;
54241;SDS011;40156;51.080;17.082;2022-07-29T06:09:20;5.22;;;1.98;;
54241;SDS011;40156;51.080;17.082;2022-07-29T06:11:48;5.43;;;1.98;;
54241;SDS011;40156;51.080;17.082;2022-07-29T06:14:15;3.35;;;2.10;;
54241;SDS011;40156;51.080;17.082;2022-07-29T06:17:01;3.75;;;1.77;;
54241;SDS011;40156;51.080;17.082;2022-07-29T06:19:29;4.68;;;2.20;;
54241;SDS011;40156;51.080;17.082;2022-07-29T06:24:32;5.20;;;2.25;;
54241;SDS011;40156;51.080;17.082;2022-07-29T06:27:00;5.20;;;1.70;;
54241;SDS011;40156;51.080;17.082;2022-07-29T06:29:27;4.85;;;2.00;;
54241;SDS011;40156;51.080;17.082;2022-07-29T06:31:55;3.60;;;1.90;;
54241;SDS011;40156;51.080;17.082;2022-07-29T06:34:23;7.03;;;1.90;;
54241;SDS011;40156;51.080;17.082;2022-07-29T06:36:51;7.45;;;1.60;;
54241;SDS011;40156;51.080;17.082;2022-07-29T06:39:20;3.40;;;1.67;;
54241;SDS011;40156;51.080;17.082;2022-07-29T06:41:48;3.53;;;1.90;;
54241;SDS011;40156;51.080;17.082;2022-07-29T06:44:16;4.43;;;1.40;;
54241;SDS011;40156;51.080;17.082;2022-07-29T06:46:51;6.97;;;1.88;;
54241;SDS011;40156;51.080;17.082;2022-07-29T06:49:18;3.25;;;1.75;;
54241;SDS011;40156;51.080;17.082;2022-07-29T06:51:46;4.97;;;1.95;;
54241;SDS011;40156;51.080;17.082;2022-07-29T06:54:13;3.33;;;1.80;;
54241;SDS011;40156;51.080;17.082;2022-07-29T06:56:41;3.47;;;1.50;;
54241;SDS011;40156;51.080;17.082;2022-07-29T06:59:09;3.63;;;1.42;;
54241;SDS011;40156;51.080;17.082;2022-07-29T07:01:37;2.85;;;1.48;;
54241;SDS011;40156;51.080;17.082;2022-07-29T07:04:06;1.63;;;1.40;;
54241;SDS011;40156;51.080;17.082;2022-07-29T07:09:10;3.50;;;1.45;;
54241;SDS011;40156;51.080;17.082;2022-07-29T07:11:45;3.00;;;1.52;;
54241;SDS011;40156;51.080;17.082;2022-07-29T07:14:15;3.35;;;1.35;;
54241;SDS011;40156;51.080;17.082;2022-07-29T07:16:43;2.00;;;1.30;;
54241;SDS011;40156;51.080;17.082;2022-07-29T07:19:11;2.17;;;1.38;;
54241;SDS011;40156;51.080;17.082;2022-07-29T07:21:40;2.80;;;1.55;;
54241;SDS011;40156;51.080;17.082;2022-07-29T07:24:07;4.50;;;1.38;;
54241;SDS011;40156;51.080;17.082;2022-07-29T07:26:35;4.35;;;1.67;;
54241;SDS011;40156;51.080;17.082;2022-07-29T07:29:02;5.97;;;1.77;;
54241;SDS011;40156;51.080;17.082;2022-07-29T07:31:41;2.05;;;1.33;;
54241;SDS011;40156;51.080;17.082;2022-07-29T07:34:09;1.30;;;1.20;;
54241;SDS011;40156;51.080;17.082;2022-07-29T07:36:38;2.25;;;1.35;;
54241;SDS011;40156;51.080;17.082;2022-07-29T07:39:05;4.43;;;1.65;;
54241;SDS011;40156;51.080;17.082;2022-07-29T07:41:32;1.33;;;1.17;;
54241;SDS011;40156;51.080;17.082;2022-07-29T07:44:00;3.30;;;1.50;;
54241;SDS011;40156;51.080;17.082;2022-07-29T07:46:27;3.92;;;1.60;;
54241;SDS011;40156;51.080;17.082;2022-07-29T07:48:55;3.40;;;2.05;;
54241;SDS011;40156;51.080;17.082;2022-07-29T07:51:22;5.88;;;1.65;;
54241;SDS011;40156;51.080;17.082;2022-07-29T07:53:50;4.28;;;1.80;;
54241;SDS011;40156;51.080;17.082;2022-07-29T07:56:17;5.70;;;1.70;;
54241;SDS011;40156;51.080;17.082;2022-07-29T07:58:45;4.28;;;1.50;;
54241;SDS011;40156;51.080;17.082;2022-07-29T08:01:12;2.80;;;1.50;;
54241;SDS011;40156;51.080;17.082;2022-07-29T08:03:40;3.00;;;1.80;;
54241;SDS011;40156;51.080;17.082;2022-07-29T08:06:07;3.28;;;1.63;;
54241;SDS011;40156;51.080;17.082;2022-07-29T08:08:35;8.30;;;1.95;;
54241;SDS011;40156;51.080;17.082;2022-07-29T08:11:02;7.28;;;2.22;;
54241;SDS011;40156;51.080;17.082;2022-07-29T08:13:35;7.72;;;1.70;;
54241;SDS011;40156;51.080;17.082;2022-07-29T08:16:02;7.28;;;2.33;;
54241;SDS011;40156;51.080;17.082;2022-07-29T08:18:30;7.65;;;2.17;;
54241;SDS011;40156;51.080;17.082;2022-07-29T08:20:58;5.07;;;1.80;;
54241;SDS011;40156;51.080;17.082;2022-07-29T08:23:27;6.28;;;1.95;;
54241;SDS011;40156;51.080;17.082;2022-07-29T08:26:13;3.65;;;1.35;;
54241;SDS011;40156;51.080;17.082;2022-07-29T08:28:41;2.08;;;1.45;;
54241;SDS011;40156;51.080;17.082;2022-07-29T08:31:09;4.80;;;1.75;;
54241;SDS011;40156;51.080;17.082;2022-07-29T08:33:37;7.53;;;1.65;;
54241;SDS011;40156;51.080;17.082;2022-07-29T08:36:04;4.63;;;2.00;;
54241;SDS011;40156;51.080;17.082;2022-07-29T08:38:32;1.83;;;1.20;;
54241;SDS011;40156;51.080;17.082;2022-07-29T08:41:00;2.72;;;1.50;;
54241;SDS011;40156;51.080;17.082;2022-07-29T08:43:30;3.50;;;1.45;;
54241;SDS011;40156;51.080;17.082;2022-07-29T08:45:57;10.48;;;2.55;;
54241;SDS011;40156;51.080;17.082;2022-07-29T08:48:25;4.38;;;1.60;;
54241;SDS011;40156;51.080;17.082;2022-07-29T08:50:54;1.95;;;1.50;;
54241;SDS011;40156;51.080;17.082;2022-07-29T08:53:23;2.72;;;1.55;;
54241;SDS011;40156;51.080;17.082;2022-07-29T08:58:21;3.47;;;1.95;;
54241;SDS011;40156;51.080;17.082;2022-07-29T09:00:55;4.70;;;1.63;;
54241;SDS011;40156;51.080;17.082;2022-07-29T09:03:43;3.58;;;1.65;;
54241;SDS011;40156;51.080;17.082;2022-07-29T09:06:14;4.22;;;1.70;;
54241;SDS011;40156;51.080;17.082;2022-07-29T09:08:44;5.32;;;1.70;;
54241;SDS011;40156;51.080;17.082;2022-07-29T09:11:12;3.65;;;1.60;;
54241;SDS011;40156;51.080;17.082;2022-07-29T09:13:40;4.38;;;1.73;;
54241;SDS011;40156;51.080;17.082;2022-07-29T09:16:10;2.30;;;1.40;;
54241;SDS011;40156;51.080;17.082;2022-07-29T09:18:38;10.27;;;2.00;;
54241;SDS011;40156;51.080;17.082;2022-07-29T09:21:07;5.35;;;1.90;;
54241;SDS011;40156;51.080;17.082;2022-07-29T09:23:36;2.30;;;1.77;;
54241;SDS011;40156;51.080;17.082;2022-07-29T09:26:05;2.50;;;1.60;;
54241;SDS011;40156;51.080;17.082;2022-07-29T09:28:32;1.55;;;1.40;;
54241;SDS011;40156;51.080;17.082;2022-07-29T09:31:00;2.28;;;1.98;;
54241;SDS011;40156;51.080;17.082;2022-07-29T09:33:31;3.63;;;2.00;;
54241;SDS011;40156;51.080;17.082;2022-07-29T09:36:03;2.65;;;2.08;;
54241;SDS011;40156;51.080;17.082;2022-07-29T09:38:32;2.92;;;2.08;;
54241;SDS011;40156;51.080;17.082;2022-07-29T09:41:01;2.55;;;1.60;;
54241;SDS011;40156;51.080;17.082;2022-07-29T09:43:33;5.05;;;1.90;;
54241;SDS011;40156;51.080;17.082;2022-07-29T09:46:13;2.88;;;1.48;;
54241;SDS011;40156;51.080;17.082;2022-07-29T09:48:41;1.67;;;1.58;;
54241;SDS011;40156;51.080;17.082;2022-07-29T09:51:17;6.88;;;2.08;;
54241;SDS011;40156;51.080;17.082;2022-07-29T09:53:48;2.55;;;1.83;;
54241;SDS011;40156;51.080;17.082;2022-07-29T09:59:20;3.53;;;1.80;;
54241;SDS011;40156;51.080;17.082;2022-07-29T10:01:50;3.80;;;1.90;;
54241;SDS011;40156;51.080;17.082;2022-07-29T10:04:19;8.45;;;2.20;;
54241;SDS011;40156;51.080;17.082;2022-07-29T10:06:57;5.90;;;2.17;;
54241;SDS011;40156;51.080;17.082;2022-07-29T10:09:30;4.78;;;2.40;;
54241;SDS011;40156;51.080;17.082;2022-07-29T10:14:35;6.60;;;2.40;;
54241;SDS011;40156;51.080;17.082;2022-07-29T10:17:03;2.17;;;1.50;;
54241;SDS011;40156;51.080;17.082;2022-07-29T10:19:31;2.63;;;1.63;;
54241;SDS011;40156;51.080;17.082;2022-07-29T10:21:59;3.08;;;1.75;;
54241;SDS011;40156;51.080;17.082;2022-07-29T10:24:27;4.18;;;1.70;;
54241;SDS011;40156;51.080;17.082;2022-07-29T10:26:56;7.90;;;2.20;;
54241;SDS011;40156;51.080;17.082;2022-07-29T10:29:26;4.25;;;1.98;;
54241;SDS011;40156;51.080;17.082;2022-07-29T10:35:01;5.60;;;2.08;;
54241;SDS011;40156;51.080;17.082;2022-07-29T10:37:40;1.73;;;1.60;;
54241;SDS011;40156;51.080;17.082;2022-07-29T10:42:42;3.03;;;1.77;;
54241;SDS011;40156;51.080;17.082;2022-07-29T10:45:13;2.80;;;1.80;;
54241;SDS011;40156;51.080;17.082;2022-07-29T10:47:44;2.22;;;1.95;;
54241;SDS011;40156;51.080;17.082;2022-07-29T10:50:12;6.85;;;2.35;;
54241;SDS011;40156;51.080;17.082;2022-07-29T11:00:50;3.88;;;2.00;;
54241;SDS011;40156;51.080;17.082;2022-07-29T11:09:18;3.40;;;1.88;;
54241;SDS011;40156;51.080;17.082;2022-07-29T11:12:01;4.72;;;2.25;;
54241;SDS011;40156;51.080;17.082;2022-07-29T11:17:18;3.20;;;2.00;;
54241;SDS011;40156;51.080;17.082;2022-07-29T11:19:47;3.75;;;1.80;;
54241;SDS011;40156;51.080;17.082;2022-07-29T11:22:33;2.10;;;1.90;;
54241;SDS011;40156;51.080;17.082;2022-07-29T11:25:14;4.32;;;1.73;;
54241;SDS011;40156;51.080;17.082;2022-07-29T11:27:47;4.30;;;1.90;;
54241;SDS011;40156;51.080;17.082;2022-07-29T11:30:15;2.45;;;1.73;;
54241;SDS011;40156;51.080;17.082;2022-07-29T11:32:52;2.00;;;1.80;;
54241;SDS011;40156;51.080;17.082;2022-07-29T11:35:23;5.95;;;1.88;;
54241;SDS011;40156;51.080;17.082;2022-07-29T11:43:47;3.85;;;1.92;;
54241;SDS011;40156;51.080;17.082;2022-07-29T11:46:22;2.95;;;1.80;;
54241;SDS011;40156;51.080;17.082;2022-07-29T11:49:05;5.53;;;1.98;;
54241;SDS011;40156;51.080;17.082;2022-07-29T11:51:36;5.33;;;2.13;;
54241;SDS011;40156;51.080;17.082;2022-07-29T11:57:20;6.50;;;2.03;;
54241;SDS011;40156;51.080;17.082;2022-07-29T11:59:48;2.88;;;2.20;;
54241;SDS011;40156;51.080;17.082;2022-07-29T12:02:16;2.45;;;1.80;;
54241;SDS011;40156;51.080;17.082;2022-07-29T12:05:04;5.30;;;2.00;;
54241;SDS011;40156;51.080;17.082;2022-07-29T12:07:37;3.40;;;2.42;;
54241;SDS011;40156;51.080;17.082;2022-07-29T12:10:07;2.63;;;2.22;;
54241;SDS011;40156;51.080;17.082;2022-07-29T12:12:50;3.90;;;2.20;;
54241;SDS011;40156;51.080;17.082;2022-07-29T12:15:31;6.38;;;2.40;;
54241;SDS011;40156;51.080;17.082;2022-07-29T12:18:20;4.90;;;2.17;;
54241;SDS011;40156;51.080;17.082;2022-07-29T12:21:00;4.38;;;2.08;;
54241;SDS011;40156;51.080;17.082;2022-07-29T12:23:33;3.33;;;2.13;;
54241;SDS011;40156;51.080;17.082;2022-07-29T12:26:05;4.35;;;2.40;;
54241;SDS011;40156;51.080;17.082;2022-07-29T12:28:55;2.58;;;2.15;;
54241;SDS011;40156;51.080;17.082;2022-07-29T12:31:28;3.35;;;2.10;;
54241;SDS011;40156;51.080;17.082;2022-07-29T12:34:11;3.20;;;2.10;;
54241;SDS011;40156;51.080;17.082;2022-07-29T12:36:39;3.22;;;2.20;;
54241;SDS011;40156;51.080;17.082;2022-07-29T12:39:07;2.85;;;2.30;;
54241;SDS011;40156;51.080;17.082;2022-07-29T12:41:42;2.95;;;1.90;;
54241;SDS011;40156;51.080;17.082;2022-07-29T12:44:10;5.05;;;1.88;;
54241;SDS011;40156;51.080;17.082;2022-07-29T12:46:37;3.03;;;2.10;;
54241;SDS011;40156;51.080;17.082;2022-07-29T12:49:06;3.42;;;2.45;;
54241;SDS011;40156;51.080;17.082;2022-07-29T12:51:38;7.40;;;2.15;;
54241;SDS011;40156;51.080;17.082;2022-07-29T12:54:07;4.03;;;2.08;;
54241;SDS011;40156;51.080;17.082;2022-07-29T12:56:34;4.22;;;2.17;;
54241;SDS011;40156;51.080;17.082;2022-07-29T12:59:15;3.33;;;1.90;;
54241;SDS011;40156;51.080;17.082;2022-07-29T13:01:45;2.83;;;2.17;;
54241;SDS011;40156;51.080;17.082;2022-07-29T13:04:26;3.35;;;2.00;;
54241;SDS011;40156;51.080;17.082;2022-07-29T13:06:58;3.05;;;2.20;;
54241;SDS011;40156;51.080;17.082;2022-07-29T13:12:26;2.03;;;1.83;;
54241;SDS011;40156;51.080;17.082;2022-07-29T13:14:53;2.30;;;2.10;;
54241;SDS011;40156;51.080;17.082;2022-07-29T13:17:21;3.15;;;1.85;;
54241;SDS011;40156;51.080;17.082;2022-07-29T13:19:53;3.70;;;2.35;;
54241;SDS011;40156;51.080;17.082;2022-07-29T13:22:35;5.78;;;2.13;;
54241;SDS011;40156;51.080;17.082;2022-07-29T13:25:02;2.97;;;2.00;;
54241;SDS011;40156;51.080;17.082;2022-07-29T13:27:31;2.92;;;2.30;;
54241;SDS011;40156;51.080;17.082;2022-07-29T13:30:02;3.83;;;2.30;;
54241;SDS011;40156;51.080;17.082;2022-07-29T13:32:31;5.82;;;2.30;;
54241;SDS011;40156;51.080;17.082;2022-07-29T13:35:00;2.65;;;2.15;;
54241;SDS011;40156;51.080;17.082;2022-07-29T13:37:32;3.55;;;2.40;;
54241;SDS011;40156;51.080;17.082;2022-07-29T13:40:00;3.15;;;2.45;;
54241;SDS011;40156;51.080;17.082;2022-07-29T13:42:28;3.50;;;2.53;;
54241;SDS011;40156;51.080;17.082;2022-07-29T13:45:02;3.08;;;2.30;;
54241;SDS011;40156;51.080;17.082;2022-07-29T13:47:30;3.10;;;2.15;;
54241;SDS011;40156;51.080;17.082;2022-07-29T13:50:08;2.67;;;2.20;;
54241;SDS011;40156;51.080;17.082;2022-07-29T13:52:36;3.67;;;2.40;;
54241;SDS011;40156;51.080;17.082;2022-07-29T13:55:04;2.70;;;2.15;;
54241;SDS011;40156;51.080;17.082;2022-07-29T13:57:31;2.78;;;2.15;;
54241;SDS011;40156;51.080;17.082;2022-07-29T13:59:59;2.00;;;1.80;;
54241;SDS011;40156;51.080;17.082;2022-07-29T14:02:26;2.90;;;2.03;;
54241;SDS011;40156;51.080;17.082;2022-07-29T14:04:54;3.67;;;2.30;;
54241;SDS011;40156;51.080;17.082;2022-07-29T14:07:22;5.93;;;2.17;;
54241;SDS011;40156;51.080;17.082;2022-07-29T14:09:50;4.75;;;2.30;;
54241;SDS011;40156;51.080;17.082;2022-07-29T14:12:21;4.05;;;2.38;;
54241;SDS011;40156;51.080;17.082;2022-07-29T14:14:48;4.05;;;2.40;;
54241;SDS011;40156;51.080;17.082;2022-07-29T14:17:19;3.55;;;2.15;;
54241;SDS011;40156;51.080;17.082;2022-07-29T14:19:46;4.88;;;2.42;;
54241;SDS011;40156;51.080;17.082;2022-07-29T14:22:14;4.85;;;2.15;;
54241;SDS011;40156;51.080;17.082;2022-07-29T14:24:42;5.15;;;2.60;;
54241;SDS011;40156;51.080;17.082;2022-07-29T14:27:10;4.78;;;2.17;;
54241;SDS011;40156;51.080;17.082;2022-07-29T14:29:38;4.65;;;2.63;;
54241;SDS011;40156;51.080;17.082;2022-07-29T14:32:05;3.22;;;2.38;;
54241;SDS011;40156;51.080;17.082;2022-07-29T14:34:34;3.00;;;2.15;;
54241;SDS011;40156;51.080;17.082;2022-07-29T14:37:01;4.55;;;2.70;;
54241;SDS011;40156;51.080;17.082;2022-07-29T14:39:29;3.10;;;2.60;;
54241;SDS011;40156;51.080;17.082;2022-07-29T14:41:58;4.13;;;2.80;;
54241;SDS011;40156;51.080;17.082;2022-07-29T14:44:26;6.40;;;2.63;;
54241;SDS011;40156;51.080;17.082;2022-07-29T14:46:54;2.70;;;2.30;;
54241;SDS011;40156;51.080;17.082;2022-07-29T14:49:35;2.70;;;2.40;;
54241;SDS011;40156;51.080;17.082;2022-07-29T14:54:31;3.30;;;2.35;;
54241;SDS011;40156;51.080;17.082;2022-07-29T14:56:58;4.38;;;2.20;;
54241;SDS011;40156;51.080;17.082;2022-07-29T14:59:26;3.42;;;2.22;;
54241;SDS011;40156;51.080;17.082;2022-07-29T15:01:53;3.97;;;2.63;;
54241;SDS011;40156;51.080;17.082;2022-07-29T15:04:21;4.45;;;2.42;;
54241;SDS011;40156;51.080;17.082;2022-07-29T15:06:48;3.40;;;2.83;;
54241;SDS011;40156;51.080;17.082;2022-07-29T15:09:16;4.47;;;2.42;;
54241;SDS011;40156;51.080;17.082;2022-07-29T15:11:43;3.38;;;2.53;;
54241;SDS011;40156;51.080;17.082;2022-07-29T15:14:11;2.90;;;2.25;;
54241;SDS011;40156;51.080;17.082;2022-07-29T15:16:39;5.03;;;2.70;;
54241;SDS011;40156;51.080;17.082;2022-07-29T15:19:13;4.22;;;2.38;;
54241;SDS011;40156;51.080;17.082;2022-07-29T15:21:40;4.90;;;2.88;;
54241;SDS011;40156;51.080;17.082;2022-07-29T15:24:15;4.95;;;2.58;;
54241;SDS011;40156;51.080;17.082;2022-07-29T15:26:43;3.92;;;2.50;;
54241;SDS011;40156;51.080;17.082;2022-07-29T15:29:11;3.83;;;2.40;;
54241;SDS011;40156;51.080;17.082;2022-07-29T15:31:39;4.40;;;3.13;;
54241;SDS011;40156;51.080;17.082;2022-07-29T15:34:07;3.08;;;2.58;;
54241;SDS011;40156;51.080;17.082;2022-07-29T15:36:34;2.60;;;2.13;;
54241;SDS011;40156;51.080;17.082;2022-07-29T15:39:18;3.63;;;2.40;;
54241;SDS011;40156;51.080;17.082;2022-07-29T15:41:45;3.08;;;2.63;;
54241;SDS011;40156;51.080;17.082;2022-07-29T15:44:13;4.43;;;2.72;;
54241;SDS011;40156;51.080;17.082;2022-07-29T15:46:40;2.67;;;2.38;;
54241;SDS011;40156;51.080;17.082;2022-07-29T15:49:08;2.95;;;2.65;;
54241;SDS011;40156;51.080;17.082;2022-07-29T15:55:00;4.45;;;2.40;;
54241;SDS011;40156;51.080;17.082;2022-07-29T15:57:28;4.47;;;2.60;;
54241;SDS011;40156;51.080;17.082;2022-07-29T15:59:55;3.70;;;2.53;;
54241;SDS011;40156;51.080;17.082;2022-07-29T16:02:23;2.88;;;2.40;;
54241;SDS011;40156;51.080;17.082;2022-07-29T16:04:50;2.80;;;2.40;;
54241;SDS011;40156;51.080;17.082;2022-07-29T16:07:17;6.70;;;2.78;;
54241;SDS011;40156;51.080;17.082;2022-07-29T16:09:45;3.13;;;2.42;;
54241;SDS011;40156;51.080;17.082;2022-07-29T16:12:19;3.63;;;2.67;;
54241;SDS011;40156;51.080;17.082;2022-07-29T16:14:46;4.22;;;2.40;;
54241;SDS011;40156;51.080;17.082;2022-07-29T16:17:20;4.07;;;2.60;;
54241;SDS011;40156;51.080;17.082;2022-07-29T16:19:47;3.55;;;2.38;;
54241;SDS011;40156;51.080;17.082;2022-07-29T16:25:01;4.57;;;2.40;;
54241;SDS011;40156;51.080;17.082;2022-07-29T16:27:29;7.28;;;2.50;;
54241;SDS011;40156;51.080;17.082;2022-07-29T16:30:04;4.90;;;3.30;;